Time;durP1;ratioP1;P1;durP2;ratioP2;P2;SDS_P1;SDS_P2;PMS_P1;PMS_P2;Temp;Humidity;BMP_temperature;BMP_pressure;BME280_temperature;BME280_humidity;BME280_pressure;Samples;Min_cycle;Max_cycle;Signal;HPM_P1;HPM_P2
2022/07/18 00:01:10;;;;;;;12.70;5.10;;;;;;;9.86;77.92;98862.48;106423;1271;25328;-83
2022/07/18 00:03:38;;;;;;;9.10;5.70;;;;;;;9.74;78.29;98861.20;106586;1271;25432;-83
2022/07/18 00:06:06;;;;;;;10.50;5.90;;;;;;;9.64;79.11;98860.45;106596;1271;22542;-83
2022/07/18 00:08:34;;;;;;;9.70;5.70;;;;;;;9.53;79.30;98858.23;106595;1271;22599;-87
2022/07/18 00:11:02;;;;;;;8.40;5.20;;;;;;;9.49;79.31;98858.28;106622;1271;22645;-84
2022/07/18 00:13:30;;;;;;;8.70;5.80;;;;;;;9.43;79.42;98856.13;106611;1271;22648;-87
2022/07/18 00:15:58;;;;;;;9.90;6.30;;;;;;;9.39;80.44;98854.55;106607;1271;22519;-87
2022/07/18 00:18:26;;;;;;;11.60;6.30;;;;;;;9.33;79.66;98854.67;106632;1271;22657;-86
2022/07/18 00:20:54;;;;;;;12.20;6.20;;;;;;;9.26;80.17;98857.81;106599;1271;23277;-85
2022/07/18 00:23:22;;;;;;;10.60;5.40;;;;;;;9.22;79.99;98858.67;106595;1271;24296;-85
2022/07/18 00:25:50;;;;;;;10.90;6.00;;;;;;;9.21;80.34;98859.38;106429;1271;22567;-86
2022/07/18 00:28:18;;;;;;;10.40;5.90;;;;;;;9.19;80.38;98857.00;106420;1271;22770;-87
2022/07/18 00:30:46;;;;;;;10.70;6.10;;;;;;;9.14;80.42;98861.79;106455;1271;23288;-87
2022/07/18 00:33:15;;;;;;;9.50;5.80;;;;;;;9.09;80.59;98857.56;106408;1271;22561;-86
2022/07/18 00:35:43;;;;;;;9.60;5.80;;;;;;;9.05;80.57;98858.69;106436;1271;22649;-86
2022/07/18 00:38:12;;;;;;;11.30;6.30;;;;;;;9.03;80.96;98860.84;106423;1274;24892;-87
2022/07/18 00:40:41;;;;;;;12.00;5.60;;;;;;;8.98;81.63;98860.14;106415;1271;22619;-86
2022/07/18 00:43:13;;;;;;;9.60;6.60;;;;;;;8.93;82.08;98862.09;106416;1271;22617;-85
2022/07/18 00:45:46;;;;;;;10.20;6.30;;;;;;;8.92;81.97;98855.86;106445;1271;22564;-87
2022/07/18 00:48:14;;;;;;;8.90;6.00;;;;;;;8.93;81.70;98854.20;106413;1271;25511;-86
2022/07/18 00:50:43;;;;;;;10.00;6.90;;;;;;;8.92;81.38;98851.65;106439;1271;25384;-86
2022/07/18 00:53:11;;;;;;;10.70;6.10;;;;;;;8.85;82.01;98851.11;106415;1271;22604;-85
2022/07/18 00:55:41;;;;;;;10.40;6.20;;;;;;;8.76;82.04;98852.05;106266;1271;24220;-86
2022/07/18 00:58:11;;;;;;;11.10;6.10;;;;;;;8.73;82.48;98854.07;106424;1271;25305;-86
2022/07/18 01:03:27;;;;;;;9.60;5.80;;;;;;;8.74;82.29;98849.23;106479;1271;23638;-86
2022/07/18 01:05:55;;;;;;;10.30;5.90;;;;;;;8.73;82.27;98844.50;106402;1271;22834;-86
2022/07/18 01:08:23;;;;;;;8.40;5.60;;;;;;;8.73;82.79;98843.75;106453;1271;24277;-86
2022/07/18 01:10:53;;;;;;;9.30;6.30;;;;;;;8.71;83.32;98838.65;106413;1271;23138;-86
2022/07/18 01:13:21;;;;;;;10.60;5.80;;;;;;;8.71;83.73;98839.45;106384;1271;22600;-87
2022/07/18 01:15:50;;;;;;;8.50;5.40;;;;;;;8.74;83.87;98838.70;106433;1271;25334;-86
2022/07/18 01:18:18;;;;;;;9.30;6.40;;;;;;;8.77;83.78;98836.84;106471;1271;24271;-87
2022/07/18 01:20:46;;;;;;;10.50;6.00;;;;;;;8.77;83.86;98836.77;106399;1271;23399;-86
2022/07/18 01:23:14;;;;;;;8.20;6.00;;;;;;;8.72;83.73;98838.92;106382;1271;25306;-84
2022/07/18 01:25:43;;;;;;;8.00;5.80;;;;;;;8.70;83.87;98844.49;106369;1271;22464;-87
2022/07/18 01:28:11;;;;;;;10.00;5.60;;;;;;;8.74;83.68;98842.52;106169;1271;25296;-87
2022/07/18 01:30:39;;;;;;;9.70;6.80;;;;;;;8.73;84.13;98842.14;106193;1271;22553;-87
2022/07/18 01:33:08;;;;;;;7.60;5.50;;;;;;;8.69;83.91;98838.67;106348;1271;25191;-87
2022/07/18 01:35:36;;;;;;;10.20;5.70;;;;;;;8.64;84.42;98836.89;106303;1271;25411;-85
2022/07/18 01:38:04;;;;;;;9.30;5.90;;;;;;;8.61;84.80;98835.80;106333;1271;22685;-86
2022/07/18 01:40:32;;;;;;;9.30;5.60;;;;;;;8.62;85.66;98836.94;106319;1271;22685;-85
2022/07/18 01:43:00;;;;;;;7.80;5.40;;;;;;;8.62;84.72;98834.74;106268;1271;25285;-85
2022/07/18 01:45:28;;;;;;;9.10;6.50;;;;;;;8.61;85.45;98832.80;106280;1271;22564;-86
2022/07/18 01:47:56;;;;;;;13.70;6.50;;;;;;;8.58;86.11;98833.44;106324;1271;22544;-86
2022/07/18 01:50:24;;;;;;;10.90;6.80;;;;;;;8.55;86.15;98835.67;106295;1271;23025;-84
2022/07/18 01:52:52;;;;;;;9.40;6.10;;;;;;;8.55;86.29;98833.47;106329;1271;22533;-87
2022/07/18 01:55:20;;;;;;;8.80;6.10;;;;;;;8.56;86.55;98834.14;106129;1271;215733;-87
2022/07/18 01:57:48;;;;;;;10.50;6.30;;;;;;;8.59;86.41;98827.15;106320;1271;22860;-87
2022/07/18 02:00:16;;;;;;;9.80;6.40;;;;;;;8.61;86.59;98832.09;106338;1271;22700;-87
2022/07/18 02:02:44;;;;;;;10.80;6.80;;;;;;;8.59;86.56;98829.99;106337;1271;22808;-85
2022/07/18 02:05:12;;;;;;;7.90;6.20;;;;;;;8.53;86.49;98834.06;106214;1271;22707;-85
2022/07/18 02:07:42;;;;;;;9.80;6.00;;;;;;;8.49;87.04;98830.02;106328;1271;25308;-85
2022/07/18 02:10:14;;;;;;;11.10;6.40;;;;;;;8.48;86.84;98832.70;106334;1269;22779;-87
2022/07/18 02:12:42;;;;;;;11.00;6.00;;;;;;;8.46;86.37;98829.13;106328;1271;24121;-87
2022/07/18 02:15:11;;;;;;;9.30;6.80;;;;;;;8.47;86.18;98832.53;106398;1271;24179;-86
2022/07/18 02:17:40;;;;;;;8.50;6.30;;;;;;;8.54;85.75;98830.62;106412;1271;24408;-86
2022/07/18 02:20:11;;;;;;;10.00;7.00;;;;;;;8.52;85.45;98835.19;106486;1271;24390;-86
2022/07/18 02:22:39;;;;;;;10.00;6.60;;;;;;;8.45;85.67;98827.20;106514;1271;25398;-86
2022/07/18 02:25:08;;;;;;;9.90;6.70;;;;;;;8.40;85.92;98828.03;106487;1271;23199;-85
2022/07/18 02:27:36;;;;;;;9.00;6.70;;;;;;;8.39;86.15;98829.10;106472;1271;24076;-85
2022/07/18 02:30:06;;;;;;;11.50;6.30;;;;;;;8.36;86.65;98834.15;106445;1271;22538;-86
2022/07/18 02:32:36;;;;;;;8.90;6.20;;;;;;;8.36;86.61;98833.19;106568;1271;23926;-86
2022/07/18 02:35:07;;;;;;;8.60;7.00;;;;;;;8.38;86.91;98831.46;106490;1271;24237;-86
2022/07/18 02:37:37;;;;;;;13.20;7.60;;;;;;;8.39;87.62;98825.16;106535;1271;25357;-86
2022/07/18 02:40:08;;;;;;;11.20;7.10;;;;;;;8.36;88.26;98828.69;106468;1271;22708;-86
2022/07/18 02:42:37;;;;;;;10.40;7.20;;;;;;;8.36;88.09;98827.02;106479;1271;22569;-87
2022/07/18 02:45:07;;;;;;;9.50;7.40;;;;;;;8.35;88.36;98828.35;106375;1271;25333;-88
2022/07/18 02:47:35;;;;;;;13.80;7.20;;;;;;;8.33;88.31;98833.39;106391;1270;25340;-88
2022/07/18 02:50:03;;;;;;;10.90;8.10;;;;;;;8.34;88.83;98837.05;106179;1271;22697;-87
2022/07/18 02:52:31;;;;;;;11.10;7.40;;;;;;;8.36;88.80;98836.64;106343;1271;24396;-87
2022/07/18 02:55:00;;;;;;;11.30;6.80;;;;;;;8.40;89.34;98834.27;106348;1271;22628;-84
2022/07/18 02:57:29;;;;;;;13.00;7.20;;;;;;;8.40;89.49;98838.02;106340;1271;22872;-86
2022/07/18 02:59:57;;;;;;;8.80;6.40;;;;;;;8.39;89.25;98839.52;106432;1271;22781;-87
2022/07/18 03:02:26;;;;;;;10.40;7.20;;;;;;;8.40;89.12;98837.05;106236;1271;22543;-86
2022/07/18 03:04:54;;;;;;;11.10;6.80;;;;;;;8.42;88.92;98837.49;106535;1271;25235;-83
2022/07/18 03:07:22;;;;;;;17.20;7.50;;;;;;;8.44;88.97;98842.34;106448;1271;23313;-87
2022/07/18 03:09:51;;;;;;;16.60;9.40;;;;;;;8.43;89.38;98840.19;106474;1271;22939;-87
2022/07/18 03:12:19;;;;;;;12.40;7.40;;;;;;;8.45;89.36;98839.45;106501;1270;22566;-87
2022/07/18 03:14:47;;;;;;;10.30;7.30;;;;;;;8.49;89.30;98837.00;106477;1271;22617;-86
2022/07/18 03:17:15;;;;;;;16.50;8.00;;;;;;;8.51;89.11;98834.96;106415;1271;22620;-86
2022/07/18 03:19:43;;;;;;;10.50;7.30;;;;;;;8.55;89.05;98835.99;106369;1271;22783;-87
2022/07/18 03:22:11;;;;;;;10.70;7.00;;;;;;;8.56;89.38;98834.52;106364;1271;22647;-87
2022/07/18 03:24:39;;;;;;;12.50;7.20;;;;;;;8.60;89.32;98840.42;106394;1271;25396;-85
2022/07/18 03:27:07;;;;;;;11.50;8.50;;;;;;;8.65;89.93;98846.84;106336;1271;22681;-87
2022/07/18 03:29:35;;;;;;;11.20;9.60;;;;;;;8.69;90.01;98849.05;106169;1271;24245;-87
2022/07/18 03:32:03;;;;;;;13.90;9.20;;;;;;;8.74;89.44;98848.27;106170;1271;22556;-91
2022/07/18 03:34:32;;;;;;;11.10;7.90;;;;;;;8.81;89.06;98847.92;106389;1271;22681;-84
2022/07/18 03:37:00;;;;;;;18.10;9.30;;;;;;;8.89;88.87;98854.55;106304;1270;22617;-87
2022/07/18 03:39:28;;;;;;;13.40;8.50;;;;;;;9.10;89.38;98856.33;106445;1271;25271;-87
2022/07/18 03:41:56;;;;;;;11.00;8.80;;;;;;;9.19;89.43;98860.27;106431;1271;22854;-87
2022/07/18 03:44:24;;;;;;;15.70;8.50;;;;;;;9.22;89.68;98865.19;106470;1271;25525;-86
2022/07/18 03:46:53;;;;;;;10.20;7.70;;;;;;;9.22;89.52;98862.39;106425;1271;25440;-86
2022/07/18 03:49:21;;;;;;;10.30;8.30;;;;;;;9.26;89.13;98864.02;106457;1271;22595;-86
2022/07/18 03:51:49;;;;;;;11.50;9.00;;;;;;;9.38;89.38;98864.23;106400;1271;24872;-85
2022/07/18 03:54:17;;;;;;;14.20;10.80;;;;;;;9.62;89.45;98864.10;106315;1271;22706;-88
2022/07/18 03:56:45;;;;;;;12.70;8.80;;;;;;;9.87;89.26;98867.33;106351;1271;22679;-85
2022/07/18 03:59:13;;;;;;;11.40;8.40;;;;;;;10.00;88.99;98870.92;106478;1271;24411;-82
2022/07/18 04:01:41;;;;;;;11.70;8.80;;;;;;;10.06;88.89;98874.15;106470;1271;22614;-85
2022/07/18 04:04:09;;;;;;;14.40;10.90;;;;;;;10.16;89.04;98875.77;106463;1271;24208;-86
2022/07/18 04:06:37;;;;;;;12.60;9.50;;;;;;;10.33;89.23;98879.15;106436;1271;24352;-87
2022/07/18 04:09:05;;;;;;;16.20;10.00;;;;;;;10.50;88.64;98879.86;106444;1271;24394;-85
2022/07/18 04:11:33;;;;;;;12.20;9.20;;;;;;;10.65;88.77;98880.41;106418;1271;22617;-85
2022/07/18 04:14:01;;;;;;;14.60;10.30;;;;;;;10.81;88.65;98880.45;106446;1271;22602;-85
2022/07/18 04:16:29;;;;;;;12.30;9.60;;;;;;;10.97;88.56;98880.61;106432;1271;22691;-85
2022/07/18 04:18:58;;;;;;;14.30;10.20;;;;;;;11.08;88.50;98882.55;106319;1270;24318;-85
2022/07/18 04:21:26;;;;;;;14.10;10.60;;;;;;;11.20;89.01;98882.92;106529;1271;22602;-85
2022/07/18 04:23:54;;;;;;;13.50;9.50;;;;;;;11.31;88.64;98880.74;106471;1271;25393;-85
2022/07/18 04:26:22;;;;;;;13.00;9.40;;;;;;;11.42;88.41;98883.80;106478;1271;22660;-85
2022/07/18 04:28:50;;;;;;;16.70;8.90;;;;;;;11.55;88.37;98883.89;106455;1271;25400;-86
2022/07/18 04:31:18;;;;;;;12.00;9.00;;;;;;;11.66;88.90;98885.32;106465;1271;24411;-86
2022/07/18 04:33:47;;;;;;;18.10;9.80;;;;;;;11.74;88.62;98886.00;106506;1271;24266;-85
2022/07/18 04:36:15;;;;;;;11.40;7.90;;;;;;;11.87;88.86;98885.06;106497;1271;24412;-85
2022/07/18 04:38:43;;;;;;;14.30;7.90;;;;;;;11.99;88.63;98885.03;106441;1271;22569;-86
2022/07/18 04:41:11;;;;;;;14.10;7.90;;;;;;;12.10;88.42;98886.33;106371;1271;23929;-87
2022/07/18 04:43:39;;;;;;;11.10;7.90;;;;;;;12.18;88.07;98885.78;106373;1271;25623;-89
2022/07/18 04:46:07;;;;;;;11.90;8.10;;;;;;;12.24;87.74;98885.55;106381;1270;24275;-89
2022/07/18 04:48:35;;;;;;;11.10;7.40;;;;;;;12.29;87.49;98887.56;106382;1270;22617;-90
2022/07/18 04:51:03;;;;;;;11.80;7.10;;;;;;;12.34;87.10;98890.59;106361;1271;25327;-89
2022/07/18 04:53:31;;;;;;;11.90;7.30;;;;;;;12.36;86.69;98895.33;106428;1271;22566;-88
2022/07/18 04:55:58;;;;;;;15.20;8.10;;;;;;;12.38;86.41;98887.25;106481;1271;25903;-89
2022/07/18 04:58:26;;;;;;;11.00;7.00;;;;;;;12.40;86.03;98885.51;106397;1271;23035;-88
2022/07/18 05:00:55;;;;;;;13.60;7.70;;;;;;;12.44;86.01;98885.45;106439;1271;25374;-87
2022/07/18 05:03:24;;;;;;;12.20;8.20;;;;;;;12.48;85.87;98887.74;106600;1270;22563;-88
2022/07/18 05:05:52;;;;;;;12.00;7.90;;;;;;;12.55;85.69;98889.95;106450;1271;22604;-89
2022/07/18 05:08:20;;;;;;;17.80;10.20;;;;;;;12.58;84.96;98885.67;106479;1271;24407;-89
2022/07/18 05:10:48;;;;;;;11.40;8.90;;;;;;;12.62;84.46;98882.84;106581;1270;25502;-88
2022/07/18 05:13:16;;;;;;;12.80;8.90;;;;;;;12.68;84.95;98884.33;106444;1271;25401;-88
2022/07/18 05:15:44;;;;;;;14.40;8.50;;;;;;;12.76;84.35;98885.54;106455;1271;25404;-90
2022/07/18 05:18:12;;;;;;;12.40;8.40;;;;;;;12.82;84.21;98880.88;106468;1271;25423;-87
2022/07/18 05:20:40;;;;;;;12.30;8.40;;;;;;;12.88;83.96;98872.20;106471;1271;22679;-87
2022/07/18 05:23:14;;;;;;;15.40;8.90;;;;;;;12.95;84.07;98871.95;106493;1271;24268;-87
2022/07/18 05:25:42;;;;;;;16.20;8.50;;;;;;;13.02;83.46;98867.41;106442;1271;22620;-88
2022/07/18 05:28:10;;;;;;;17.30;8.60;;;;;;;13.12;83.85;98866.75;106471;1269;25404;-87
2022/07/18 05:30:38;;;;;;;14.60;8.60;;;;;;;13.22;83.49;98868.71;106479;1271;22612;-88
2022/07/18 05:33:06;;;;;;;14.90;8.70;;;;;;;13.27;83.61;98857.08;106445;1270;25396;-87
2022/07/18 05:35:34;;;;;;;12.80;8.30;;;;;;;13.38;82.31;98864.77;106491;1271;24180;-87
2022/07/18 05:38:02;;;;;;;16.20;9.10;;;;;;;13.44;82.12;98868.21;106445;1271;22549;-90
2022/07/18 05:40:30;;;;;;;13.20;7.80;;;;;;;13.50;80.21;98862.86;106442;1271;22618;-88
2022/07/18 05:42:58;;;;;;;28.00;12.80;;;;;;;13.55;80.96;98866.04;106255;1271;22996;-88
2022/07/18 05:45:26;;;;;;;22.80;11.10;;;;;;;13.67;80.64;98868.03;106195;1271;22900;-88
2022/07/18 05:47:54;;;;;;;20.20;11.30;;;;;;;13.76;79.85;98868.65;106409;1268;25720;-87
2022/07/18 05:50:24;;;;;;;15.90;9.30;;;;;;;13.84;79.18;98858.96;106245;1271;22594;-88
2022/07/18 05:52:53;;;;;;;21.20;11.90;;;;;;;13.90;78.27;98858.82;106601;1271;22554;-87
2022/07/18 05:55:21;;;;;;;14.90;8.00;;;;;;;13.98;78.45;98858.91;106410;1271;25303;-87
2022/07/18 05:57:49;;;;;;;15.20;8.90;;;;;;;14.09;76.69;98857.24;106334;1270;22544;-87
2022/07/18 06:00:18;;;;;;;11.40;8.10;;;;;;;14.19;77.95;98855.49;106356;1271;26472;-88
2022/07/18 06:02:48;;;;;;;15.40;8.40;;;;;;;14.32;76.93;98859.48;106420;1271;22535;-88
2022/07/18 06:05:17;;;;;;;13.20;7.60;;;;;;;14.46;77.31;98856.25;106338;1271;23177;-87
2022/07/18 06:07:51;;;;;;;16.20;7.30;;;;;;;14.67;76.92;98859.01;106393;1271;25581;-88
2022/07/18 06:10:20;;;;;;;17.30;10.00;;;;;;;14.78;77.00;98860.36;106468;1271;22605;-86
2022/07/18 06:12:49;;;;;;;13.90;7.80;;;;;;;14.91;77.24;98858.46;106414;1271;24150;-90
2022/07/18 06:15:18;;;;;;;14.60;8.20;;;;;;;15.06;77.33;98861.09;106490;1271;22697;-89
2022/07/18 06:17:46;;;;;;;12.70;6.80;;;;;;;15.14;76.72;98860.59;106515;1271;22582;-87
2022/07/18 06:20:14;;;;;;;11.30;6.40;;;;;;;15.23;74.30;98865.88;107493;1271;22545;-88
2022/07/18 06:22:42;;;;;;;12.70;6.40;;;;;;;15.29;74.17;98859.54;106703;1271;22695;-87
2022/07/18 06:25:11;;;;;;;17.80;7.10;;;;;;;15.41;74.71;98862.85;106455;1271;23960;-87
2022/07/18 06:27:39;;;;;;;13.80;6.90;;;;;;;15.54;73.28;98857.60;106260;1271;22570;-88
2022/07/18 06:30:09;;;;;;;12.20;7.10;;;;;;;15.64;73.71;98859.48;106464;1271;24281;-88
2022/07/18 06:32:38;;;;;;;12.50;8.10;;;;;;;15.80;74.44;98857.61;106505;1270;22536;-88
2022/07/18 06:35:07;;;;;;;13.60;7.00;;;;;;;15.97;73.83;98858.16;106474;1271;22510;-87
2022/07/18 06:37:36;;;;;;;14.00;7.30;;;;;;;16.12;73.11;98854.80;106445;1271;22616;-88
2022/07/18 06:40:05;;;;;;;14.20;7.10;;;;;;;16.22;72.52;98859.10;106482;1271;24260;-89
2022/07/18 06:42:34;;;;;;;10.60;7.70;;;;;;;16.32;72.64;98859.81;106408;1271;22696;-88
2022/07/18 06:45:04;;;;;;;13.80;7.20;;;;;;;16.44;71.41;98857.45;106475;1271;24288;-90
2022/07/18 06:47:40;;;;;;;16.60;9.30;;;;;;;16.53;68.50;98858.66;106405;1271;24078;-88
2022/07/18 06:50:11;;;;;;;13.10;6.80;;;;;;;16.60;69.01;98860.80;106475;1271;22537;-88
2022/07/18 06:52:41;;;;;;;10.90;6.20;;;;;;;16.75;69.65;98865.29;106547;1271;24062;-88
2022/07/18 06:55:11;;;;;;;13.10;6.30;;;;;;;16.86;68.33;98861.84;106544;1271;22546;-88
2022/07/18 06:57:41;;;;;;;12.30;6.10;;;;;;;16.95;68.06;98864.99;106549;1270;23965;-88
2022/07/18 07:00:11;;;;;;;12.80;5.90;;;;;;;17.07;67.96;98862.37;106475;1271;22543;-87
2022/07/18 07:02:47;;;;;;;16.50;6.40;;;;;;;17.18;67.34;98863.57;106495;1271;22553;-87
2022/07/18 07:05:17;;;;;;;15.80;7.00;;;;;;;17.29;67.77;98854.58;106643;1271;24042;-87
2022/07/18 07:07:46;;;;;;;19.90;8.50;;;;;;;17.43;66.81;98859.04;106649;1271;26035;-87
2022/07/18 07:10:17;;;;;;;13.30;6.40;;;;;;;17.60;65.83;98856.73;106377;1271;22610;-88
2022/07/18 07:12:47;;;;;;;19.30;7.00;;;;;;;17.76;66.18;98860.48;106485;1271;24437;-86
2022/07/18 07:15:19;;;;;;;10.00;5.50;;;;;;;17.84;62.97;98858.69;106663;1271;24393;-87
2022/07/18 07:17:48;;;;;;;10.20;4.90;;;;;;;17.93;62.19;98859.79;106483;1271;24275;-89
2022/07/18 07:20:20;;;;;;;9.60;4.70;;;;;;;18.05;62.61;98858.42;106428;1271;22587;-88
2022/07/18 07:22:51;;;;;;;11.20;5.00;;;;;;;18.16;61.06;98860.13;106461;1271;24786;-89
2022/07/18 07:25:21;;;;;;;15.00;5.70;;;;;;;18.27;60.37;98860.64;106518;1271;22557;-88
2022/07/18 07:27:49;;;;;;;8.60;4.40;;;;;;;18.36;61.19;98859.10;106486;1271;25301;-89
2022/07/18 07:30:17;;;;;;;8.50;3.60;;;;;;;18.48;59.94;98862.49;107160;1271;22671;-89
2022/07/18 07:32:46;;;;;;;11.00;3.90;;;;;;;18.58;59.01;98862.20;106780;1271;24112;-88
2022/07/18 07:35:15;;;;;;;12.30;4.40;;;;;;;18.68;57.40;98854.61;106714;1269;22678;-91
2022/07/18 07:37:48;;;;;;;11.80;4.50;;;;;;;18.75;56.78;98857.44;106603;1271;22713;-90
2022/07/18 07:40:16;;;;;;;12.20;5.90;;;;;;;18.89;58.05;98857.14;106407;1271;24305;-86
2022/07/18 07:42:45;;;;;;;9.90;4.40;;;;;;;19.04;56.47;98859.98;106641;1271;22615;-89
2022/07/18 07:45:14;;;;;;;7.90;4.40;;;;;;;19.13;56.09;98861.18;106842;1271;25336;-87
2022/07/18 07:47:43;;;;;;;12.30;5.90;;;;;;;19.23;55.77;98860.73;106575;1271;24401;-86
2022/07/18 07:50:12;;;;;;;9.30;5.20;;;;;;;19.30;53.80;98860.81;106587;1271;24399;-85
2022/07/18 07:52:40;;;;;;;10.50;4.70;;;;;;;19.32;53.71;98860.95;106527;1271;22553;-89
2022/07/18 07:55:08;;;;;;;10.20;4.50;;;;;;;19.37;52.19;98856.23;106550;1271;22605;-89
2022/07/18 07:57:36;;;;;;;8.50;4.00;;;;;;;19.42;51.85;98853.23;106543;1271;25623;-87
2022/07/18 08:00:07;;;;;;;9.10;3.90;;;;;;;19.51;52.80;98851.90;106595;1270;22633;-88
2022/07/18 08:02:58;;;;;;;7.80;3.80;;;;;;;19.63;51.35;98850.39;106620;1271;22528;-88
2022/07/18 08:05:29;;;;;;;9.90;3.80;;;;;;;19.73;50.75;98847.33;106617;1271;24104;-87
2022/07/18 08:07:58;;;;;;;9.10;3.30;;;;;;;19.70;47.27;98850.73;106752;1271;24258;-87
2022/07/18 08:10:27;;;;;;;7.60;4.10;;;;;;;19.70;48.81;98849.26;106702;1271;24265;-86
2022/07/18 08:12:55;;;;;;;8.20;3.60;;;;;;;19.80;49.85;98845.17;106709;1270;25345;-87
2022/07/18 08:15:24;;;;;;;7.00;3.00;;;;;;;19.93;48.69;98841.55;106762;1271;22701;-89
2022/07/18 08:17:53;;;;;;;8.90;3.40;;;;;;;20.01;48.88;98839.55;106719;1271;22548;-83
2022/07/18 08:20:22;;;;;;;5.70;2.80;;;;;;;20.11;48.37;98841.48;106659;1271;25379;-85
2022/07/18 08:22:55;;;;;;;11.00;4.40;;;;;;;20.22;47.59;98845.74;106697;1271;22567;-83
2022/07/18 08:25:24;;;;;;;8.40;3.80;;;;;;;20.28;46.53;98840.87;106367;1271;23915;-82
2022/07/18 08:27:53;;;;;;;10.90;3.70;;;;;;;20.37;45.78;98838.92;106846;1270;22544;-84
2022/07/18 08:30:21;;;;;;;7.10;3.00;;;;;;;20.44;46.96;98835.36;106756;1271;25346;-83
2022/07/18 08:32:49;;;;;;;9.30;3.70;;;;;;;20.53;45.98;98836.94;106763;1271;22592;-83
2022/07/18 08:35:17;;;;;;;8.10;3.90;;;;;;;20.61;44.79;98837.54;106768;1271;25398;-84
2022/07/18 08:37:46;;;;;;;8.00;3.60;;;;;;;20.65;44.89;98835.30;106763;1271;24406;-83
2022/07/18 08:40:14;;;;;;;9.20;3.30;;;;;;;20.73;43.65;98831.89;106750;1271;22528;-84
2022/07/18 08:42:42;;;;;;;7.90;4.00;;;;;;;20.81;44.14;98829.85;106946;1271;22544;-83
2022/07/18 08:45:30;;;;;;;8.70;3.50;;;;;;;20.89;44.85;98831.52;106911;1271;22642;-85
2022/07/18 08:47:59;;;;;;;7.90;3.40;;;;;;;20.95;44.98;98833.27;107658;1271;24559;-84
2022/07/18 08:50:27;;;;;;;8.80;3.10;;;;;;;20.99;43.80;98833.30;106734;1271;25187;-84
2022/07/18 08:52:56;;;;;;;9.50;3.20;;;;;;;21.07;44.29;98825.48;106713;1271;25353;-82
2022/07/18 08:55:24;;;;;;;8.30;3.50;;;;;;;21.20;42.64;98828.21;106384;1271;25425;-84
2022/07/18 08:57:53;;;;;;;6.70;3.10;;;;;;;21.11;41.81;98826.23;106746;1271;23611;-83
2022/07/18 09:00:22;;;;;;;8.90;3.50;;;;;;;21.15;42.86;98832.85;106757;1270;25364;-83
2022/07/18 09:03:01;;;;;;;9.80;4.00;;;;;;;21.22;43.06;98827.58;106115;1271;25450;-84
2022/07/18 09:05:31;;;;;;;6.30;3.30;;;;;;;21.24;42.71;98828.34;106854;1271;23543;-88
2022/07/18 09:08:10;;;;;;;10.20;4.30;;;;;;;21.23;43.96;98824.79;106340;1271;23087;-87
2022/07/18 09:10:49;;;;;;;10.10;3.60;;;;;;;21.37;44.26;98827.33;106757;1271;24395;-84
2022/07/18 09:13:39;;;;;;;10.00;4.30;;;;;;;21.51;43.83;98832.02;106693;1271;22610;-88
2022/07/18 09:16:12;;;;;;;10.50;3.40;;;;;;;21.61;42.53;98834.15;106477;1271;24080;-83
2022/07/18 09:18:46;;;;;;;8.90;4.30;;;;;;;21.64;41.66;98837.19;106820;1271;24402;-85
2022/07/18 09:21:20;;;;;;;8.60;4.10;;;;;;;21.62;43.19;98833.84;106736;1270;24266;-84
2022/07/18 09:23:51;;;;;;;10.00;4.30;;;;;;;21.73;43.20;98826.32;106782;1270;22676;-85
2022/07/18 09:26:38;;;;;;;6.50;3.20;;;;;;;21.87;42.29;98829.04;106869;1268;25422;-84
2022/07/18 09:29:06;;;;;;;11.80;4.20;;;;;;;21.94;41.71;98821.86;106769;1271;22569;-85
2022/07/18 09:31:54;;;;;;;8.90;3.30;;;;;;;22.07;42.45;98821.04;106695;1269;22573;-84
2022/07/18 09:34:42;;;;;;;8.60;3.00;;;;;;;22.18;40.62;98822.04;106729;1271;22603;-84
2022/07/18 09:37:11;;;;;;;7.30;2.90;;;;;;;22.14;39.59;98828.27;106463;1271;24386;-83
2022/07/18 09:39:39;;;;;;;7.00;2.50;;;;;;;22.09;39.54;98831.75;106703;1271;22693;-82
2022/07/18 09:42:18;;;;;;;7.80;2.80;;;;;;;22.11;39.95;98824.19;106715;1271;22580;-82
2022/07/18 09:44:59;;;;;;;7.30;2.60;;;;;;;22.14;38.95;98820.89;106623;1270;24488;-83
2022/07/18 09:47:28;;;;;;;7.60;3.70;;;;;;;22.17;39.84;98819.11;106689;1271;22684;-83
2022/07/18 09:49:56;;;;;;;6.20;3.10;;;;;;;22.35;39.70;98816.81;106675;1271;24099;-84
2022/07/18 09:52:24;;;;;;;13.60;6.50;;;;;;;22.50;38.77;98819.23;106639;1271;25346;-84
2022/07/18 09:55:05;;;;;;;7.50;3.20;;;;;;;22.54;37.87;98815.55;106708;1271;23409;-81
2022/07/18 09:57:33;;;;;;;7.20;3.20;;;;;;;22.48;38.05;98824.67;106283;1271;22605;-83
2022/07/18 10:00:02;;;;;;;7.50;2.80;;;;;;;22.45;37.53;98827.65;106702;1271;26012;-84
2022/07/18 10:02:39;;;;;;;7.90;3.30;;;;;;;22.43;38.13;98817.09;106522;1271;22543;-85
2022/07/18 10:05:08;;;;;;;17.40;3.10;;;;;;;22.54;39.02;98813.98;106522;1271;23410;-82
2022/07/18 10:07:37;;;;;;;8.90;2.80;;;;;;;22.70;37.56;98815.77;106696;1271;22549;-83
2022/07/18 10:10:06;;;;;;;7.20;2.80;;;;;;;22.75;38.30;98815.25;106717;1270;23406;-83
2022/07/18 10:12:34;;;;;;;6.50;3.00;;;;;;;22.90;38.88;98802.42;106663;1271;24395;-83
2022/07/18 10:15:03;;;;;;;8.50;3.20;;;;;;;23.10;37.95;98803.58;106646;1269;24075;-83
2022/07/18 10:17:31;;;;;;;8.10;2.70;;;;;;;23.18;37.09;98808.14;106691;1271;24346;-83
2022/07/18 10:20:07;;;;;;;6.70;2.60;;;;;;;23.19;37.22;98804.88;106718;1271;23964;-82
2022/07/18 10:22:43;;;;;;;6.40;2.60;;;;;;;23.19;36.79;98800.46;106623;1271;25242;-82
2022/07/18 10:25:13;;;;;;;8.80;2.80;;;;;;;23.39;37.69;98799.88;106605;1271;22558;-83
2022/07/18 10:27:51;;;;;;;8.60;3.40;;;;;;;23.46;36.40;98798.05;106629;1271;22547;-82
2022/07/18 10:30:31;;;;;;;9.60;3.40;;;;;;;23.40;36.51;98798.54;106646;1271;22530;-84
2022/07/18 10:33:00;;;;;;;6.60;2.40;;;;;;;23.37;36.53;98796.52;106608;1271;22691;-84
2022/07/18 10:36:07;;;;;;;13.00;6.20;;;;;;;23.45;36.65;98797.41;106624;1271;22607;-82
2022/07/18 10:38:59;;;;;;;16.20;6.90;;;;;;;23.47;36.76;98799.80;106760;1271;24374;-82
2022/07/18 10:41:27;;;;;;;8.40;3.10;;;;;;;23.60;35.97;98802.50;106717;1271;24296;-82
2022/07/18 10:43:55;;;;;;;11.10;2.90;;;;;;;23.69;36.33;98800.70;106801;1271;25431;-82
2022/07/18 10:46:23;;;;;;;7.70;2.40;;;;;;;23.78;35.82;98796.02;106687;1269;22703;-83
2022/07/18 10:48:53;;;;;;;5.30;2.30;;;;;;;23.91;36.33;98792.39;106635;1271;27037;-81
2022/07/18 10:51:29;;;;;;;9.50;2.90;;;;;;;24.07;36.82;98801.73;106739;1271;24095;-83
2022/07/18 10:54:04;;;;;;;8.30;2.80;;;;;;;24.16;36.22;98793.95;106770;1271;23458;-84
2022/07/18 10:56:35;;;;;;;7.30;2.30;;;;;;;24.20;36.19;98791.42;106684;1270;25319;-83
2022/07/18 10:59:18;;;;;;;6.80;2.60;;;;;;;24.29;35.15;98795.02;106634;1271;23482;-85
2022/07/18 11:01:53;;;;;;;8.30;2.80;;;;;;;24.20;34.39;98788.89;106522;1271;24208;-83
2022/07/18 11:04:34;;;;;;;6.70;2.50;;;;;;;24.02;35.25;98789.23;106691;1271;23189;-81
2022/07/18 11:07:04;;;;;;;6.40;2.60;;;;;;;23.93;34.65;98790.48;106582;1271;22685;-84
2022/07/18 11:09:39;;;;;;;6.50;2.80;;;;;;;23.84;35.09;98785.59;106623;1271;22550;-83
2022/07/18 11:12:28;;;;;;;5.80;2.70;;;;;;;23.83;34.93;98786.98;106700;1271;22606;-82
2022/07/18 11:15:13;;;;;;;7.00;2.80;;;;;;;23.83;35.64;98777.31;106760;1271;25313;-82
2022/07/18 11:17:54;;;;;;;7.20;3.00;;;;;;;24.11;36.77;98774.50;106704;1271;22752;-83
2022/07/18 11:20:29;;;;;;;4.80;2.40;;;;;;;24.46;36.02;98767.77;106709;1271;23925;-83
2022/07/18 11:22:57;;;;;;;6.40;2.80;;;;;;;24.50;35.21;98770.44;106706;1271;25337;-83
2022/07/18 11:25:27;;;;;;;7.10;2.50;;;;;;;24.64;35.36;98766.48;106691;1271;22684;-83
2022/07/18 11:28:16;;;;;;;6.60;2.60;;;;;;;24.73;34.53;98768.11;106635;1271;22713;-84
2022/07/18 11:30:44;;;;;;;5.50;2.40;;;;;;;24.71;34.57;98766.42;106727;1271;26598;-82
2022/07/18 11:33:28;;;;;;;7.30;2.60;;;;;;;24.76;34.05;98766.42;106660;1271;22698;-83
2022/07/18 11:36:07;;;;;;;6.80;2.90;;;;;;;24.64;33.79;98768.46;106738;1271;22763;-83
2022/07/18 11:38:39;;;;;;;5.70;2.40;;;;;;;24.62;33.13;98765.58;106724;1271;22570;-83